Catalonia — 9HWS7 — position and weather

sailwx.info

Track history (hours):
 
Tides and Currents Weather Stations Pressure Air Temp Water Temp Dewpoint Dewpoint Depression Visibility Wind Speed Wind Dir Waves Ship Positions

Catalonia

Last reported at 2014-Sep-16 19:28 UTC. Time now 2014-Sep-30 17:59 UTC.
Position N 30°01' W 090°28'.
Warning: this ship's position is 13 days out of date.

Length 189 m; draft 11.5 m.

Type: Cargo ship. MMSI: 215929000.

Date/timePositionNaut miles runAvg speedWind from/ knotsBaromVisibWave heightAir tempDewpointWater temp
2014-Sep-16 19:28N 30°01' W 090°28'8 8.6
2014-Sep-16 18:33N 30°02' W 090°37'1110.3
2014-Sep-16 17:31N 29°59' W 090°49'13 1.0
2014-Sep-16 03:21N 30°08' W 091°01'  
2014-Sep-13 03:28N 30°08' W 091°01'0 0.0
2014-Sep-13 02:31N 30°08' W 091°01'0 0.0
2014-Sep-13 01:26N 30°08' W 091°01'2 2.1
2014-Sep-13 00:32N 30°07' W 090°59'5 0.3
2014-Sep-12 05:31N 30°04' W 090°54'0 0.0
2014-Sep-12 04:25N 30°04' W 090°54'0 0.0
2014-Sep-12 03:13N 30°04' W 090°54'0 0.0
2014-Sep-12 02:31N 30°04' W 090°54'0 0.0
2014-Sep-12 01:25N 30°04' W 090°54'0 0.0
2014-Sep-12 00:31N 30°04' W 090°54'0 0.0
2014-Sep-11 23:31N 30°04' W 090°54'0 0.0
2014-Sep-11 22:31N 30°04' W 090°54'0 0.0
2014-Sep-11 10:25N 30°04' W 090°54'0 0.0
2014-Sep-11 09:19N 30°04' W 090°54'0 0.0
2014-Sep-11 06:28N 30°04' W 090°54'0 0.0
2014-Sep-11 05:31N 30°04' W 090°54'0 0.0
2014-Sep-11 04:28N 30°04' W 090°54'0 0.0
2014-Sep-11 03:28N 30°04' W 090°54'0 0.0
2014-Sep-11 02:31N 30°04' W 090°54'0 0.0
2014-Sep-11 01:29N 30°04' W 090°54'5 5.0
2014-Sep-11 00:33N 30°01' W 090°50'6 6.5
2014-Sep-10 23:33N 30°01' W 090°43'8 8.4
2014-Sep-10 22:33N 30°03' W 090°33'8 7.8
2014-Sep-10 21:32N 29°60' W 090°25'8 0.9
2014-Sep-10 12:28N 29°58' W 090°16'0 0.0
2014-Sep-10 11:28N 29°58' W 090°16'0 0.0
2014-Sep-10 10:31N 29°58' W 090°16'0 0.0
2014-Sep-10 09:25N 29°58' W 090°16'0 0.0
2014-Sep-10 08:16N 29°58' W 090°16'0 0.0
2014-Sep-10 07:25N 29°58' W 090°16'0 0.0
2014-Sep-10 06:28N 29°58' W 090°16'0 0.0
2014-Sep-10 05:04N 29°58' W 090°16'0 0.0
2014-Sep-10 01:04N 29°58' W 090°16'0 0.0
2014-Sep-09 23:31N 29°58' W 090°16'0 0.0
2014-Sep-09 22:28N 29°58' W 090°16'  
Track history (hours):
 
Tides and Currents Weather Stations Pressure Air Temp Water Temp Dewpoint Dewpoint Depression Visibility Wind Speed Wind Dir Waves Ship Positions

Catalonia

Last reported at 2014-Sep-16 19:28 UTC. Time now 2014-Sep-30 17:59 UTC.
Position N 30°01' W 090°28'.
Warning: this ship's position is 13 days out of date.

Length 189 m; draft 11.5 m.

Type: Cargo ship. MMSI: 215929000.

Date/timePositionNaut miles runAvg speedWind from/ knotsBaromVisibWave heightAir tempDewpointWater temp
2014-Sep-16 19:28N 30°01' W 090°28'8 8.6
2014-Sep-16 18:33N 30°02' W 090°37'1110.3
2014-Sep-16 17:31N 29°59' W 090°49'13 1.0
2014-Sep-16 03:21N 30°08' W 091°01'  
2014-Sep-13 03:28N 30°08' W 091°01'0 0.0
2014-Sep-13 02:31N 30°08' W 091°01'0 0.0
2014-Sep-13 01:26N 30°08' W 091°01'2 2.1
2014-Sep-13 00:32N 30°07' W 090°59'5 0.3
2014-Sep-12 05:31N 30°04' W 090°54'0 0.0
2014-Sep-12 04:25N 30°04' W 090°54'0 0.0
2014-Sep-12 03:13N 30°04' W 090°54'0 0.0
2014-Sep-12 02:31N 30°04' W 090°54'0 0.0
2014-Sep-12 01:25N 30°04' W 090°54'0 0.0
2014-Sep-12 00:31N 30°04' W 090°54'0 0.0
2014-Sep-11 23:31N 30°04' W 090°54'0 0.0
2014-Sep-11 22:31N 30°04' W 090°54'0 0.0
2014-Sep-11 10:25N 30°04' W 090°54'0 0.0
2014-Sep-11 09:19N 30°04' W 090°54'0 0.0
2014-Sep-11 06:28N 30°04' W 090°54'0 0.0
2014-Sep-11 05:31N 30°04' W 090°54'0 0.0
2014-Sep-11 04:28N 30°04' W 090°54'0 0.0
2014-Sep-11 03:28N 30°04' W 090°54'0 0.0
2014-Sep-11 02:31N 30°04' W 090°54'0 0.0
2014-Sep-11 01:29N 30°04' W 090°54'5 5.0
2014-Sep-11 00:33N 30°01' W 090°50'6 6.5
2014-Sep-10 23:33N 30°01' W 090°43'8 8.4
2014-Sep-10 22:33N 30°03' W 090°33'8 7.8
2014-Sep-10 21:32N 29°60' W 090°25'8 0.9
2014-Sep-10 12:28N 29°58' W 090°16'0 0.0
2014-Sep-10 11:28N 29°58' W 090°16'0 0.0
2014-Sep-10 10:31N 29°58' W 090°16'0 0.0
2014-Sep-10 09:25N 29°58' W 090°16'0 0.0
2014-Sep-10 08:16N 29°58' W 090°16'0 0.0
2014-Sep-10 07:25N 29°58' W 090°16'0 0.0
2014-Sep-10 06:28N 29°58' W 090°16'0 0.0
2014-Sep-10 05:04N 29°58' W 090°16'0 0.0
2014-Sep-10 01:04N 29°58' W 090°16'0 0.0
2014-Sep-09 23:31N 29°58' W 090°16'0 0.0
2014-Sep-09 22:28N 29°58' W 090°16'  

Dump ship's entire track history